Terminal Aerodrome Forecast
Issued by NWS Jackson, MS

Home | Current Version | Previous Version | Text Only | Print | Product List | Glossary On
Versions: 1 2 3 4 5 6 7 8 9 10 11 12
000
FTUS44 KMEG 311700
TAFTUP
TAF
KTUP 311728Z 3118/0118 11004KT P6SM VCSH SCT050 OVC100
     FM010000 00000KT P6SM BKN050 OVC100
      TEMPO 0109/0112 4SM BR
     FM011300 03003KT P6SM SCT100=

USA.gov is the U.S. government's official web portal to all federal, state and local government web resources and services.